createdAt,value
2018-04-10T00:01:29.567Z,29.42
2018-04-10T00:03:57.743Z,26.45
2018-04-10T00:06:25.877Z,26.87
2018-04-10T00:08:54.043Z,25.20
2018-04-10T00:11:22.946Z,26.65
2018-04-10T00:13:51.121Z,25.70
2018-04-10T00:16:20.018Z,26.15
2018-04-10T00:18:48.180Z,25.95
2018-04-10T00:21:17.075Z,26.25
2018-04-10T00:23:45.244Z,26.67
2018-04-10T00:26:14.161Z,27.42
2018-04-10T00:28:42.328Z,25.48
2018-04-10T00:31:10.469Z,25.92
2018-04-10T00:33:38.607Z,26.17
2018-04-10T00:36:06.771Z,25.45
2018-04-10T00:38:34.924Z,26.37
2018-04-10T00:41:03.087Z,26.52
2018-04-10T00:43:31.228Z,29.50
2018-04-10T00:45:59.395Z,25.73
2018-04-10T00:48:27.559Z,27.17
2018-04-10T00:50:55.691Z,27.58
2018-04-10T00:53:35.702Z,27.10
2018-04-10T00:56:03.843Z,27.70
2018-04-10T00:58:31.979Z,28.25
2018-04-10T01:01:00.664Z,28.08
2018-04-10T01:03:28.807Z,29.35
2018-04-10T01:05:57.746Z,29.00
2018-04-10T01:08:25.887Z,26.95
2018-04-10T01:10:54.051Z,27.60
2018-04-10T01:13:22.183Z,27.33
2018-04-10T01:15:50.344Z,28.33
2018-04-10T01:18:18.483Z,27.08
2018-04-10T01:20:46.651Z,27.25
2018-04-10T01:23:14.795Z,25.40
2018-04-10T01:25:42.951Z,26.70
2018-04-10T01:28:11.099Z,27.45
2018-04-10T01:30:39.259Z,27.80
2018-04-10T01:33:07.399Z,27.70
2018-04-10T01:35:35.560Z,29.30
2018-04-10T01:38:03.691Z,25.80
2018-04-10T01:40:31.867Z,27.08
2018-04-10T01:43:00.019Z,26.67
2018-04-10T01:45:28.191Z,27.83
2018-04-10T01:47:56.329Z,25.40
2018-04-10T01:50:24.498Z,29.25
2018-04-10T01:52:52.628Z,28.23
2018-04-10T01:55:20.799Z,26.35
2018-04-10T01:57:48.939Z,27.00
2018-04-10T02:00:17.104Z,28.12
2018-04-10T02:02:45.243Z,27.33
2018-04-10T02:05:13.412Z,27.85
2018-04-10T02:07:41.552Z,26.62
2018-04-10T02:10:09.716Z,27.90
2018-04-10T02:12:38.267Z,25.75
2018-04-10T02:15:06.431Z,28.40
2018-04-10T02:17:34.595Z,27.48
2018-04-10T02:20:02.731Z,27.65
2018-04-10T02:22:30.894Z,29.95
2018-04-10T02:24:59.039Z,31.95
2018-04-10T02:27:27.203Z,27.35
2018-04-10T02:29:55.340Z,28.95
2018-04-10T02:32:23.501Z,32.33
2018-04-10T02:34:51.645Z,34.05
2018-04-10T02:37:19.821Z,31.33
2018-04-10T02:39:47.960Z,34.55
2018-04-10T02:42:16.127Z,35.25
2018-04-10T02:44:44.267Z,33.95
2018-04-10T02:47:12.447Z,34.83
2018-04-10T02:49:40.583Z,37.40
2018-04-10T02:52:08.755Z,33.97
2018-04-10T02:54:36.892Z,34.70
2018-04-10T02:57:05.072Z,35.42
2018-04-10T02:59:33.207Z,34.72
2018-04-10T03:02:01.369Z,35.28
2018-04-10T03:04:29.511Z,35.47
2018-04-10T03:06:58.449Z,35.60
2018-04-10T03:09:26.591Z,36.17
2018-04-10T03:11:54.753Z,35.72
2018-04-10T03:14:22.896Z,35.20
2018-04-10T03:16:51.064Z,33.78
2018-04-10T03:19:19.203Z,35.50
2018-04-10T03:21:47.371Z,34.40
2018-04-10T03:24:15.503Z,33.03
2018-04-10T03:26:43.668Z,32.90
2018-04-10T03:29:11.801Z,33.70
2018-04-10T03:31:39.959Z,33.45
2018-04-10T03:34:08.100Z,34.40
2018-04-10T03:36:36.280Z,35.10
2018-04-10T03:39:08.126Z,34.42
2018-04-10T03:41:36.291Z,35.20
2018-04-10T03:44:04.419Z,33.13
2018-04-10T03:46:32.591Z,32.70
2018-04-10T03:49:00.723Z,35.05
2018-04-10T03:51:28.888Z,35.42
2018-04-10T03:53:57.023Z,35.33
2018-04-10T03:56:25.192Z,35.05
2018-04-10T03:58:53.337Z,35.63
2018-04-10T04:01:21.495Z,35.80
2018-04-10T04:03:49.634Z,33.42
2018-04-10T04:06:17.793Z,35.67
2018-04-10T04:08:45.936Z,34.13
2018-04-10T04:11:14.096Z,32.88
2018-04-10T04:13:42.235Z,32.42
2018-04-10T04:16:22.172Z,34.47
2018-04-10T04:19:02.091Z,33.38
2018-04-10T04:21:41.972Z,33.13
2018-04-10T04:24:10.120Z,32.83
2018-04-10T04:26:38.291Z,32.38
2018-04-10T04:29:06.428Z,33.10
2018-04-10T04:31:34.612Z,34.70
2018-04-10T04:34:02.752Z,32.85
2018-04-10T04:36:30.916Z,29.85
2018-04-10T04:38:59.052Z,34.28
2018-04-10T04:41:27.317Z,33.95
2018-04-10T04:43:55.459Z,33.33
2018-04-10T04:46:23.612Z,31.45
2018-04-10T04:48:51.780Z,32.67
2018-04-10T04:51:19.923Z,33.38
2018-04-10T04:53:48.092Z,33.08
2018-04-10T04:56:16.235Z,33.42
2018-04-10T04:58:44.400Z,32.22
2018-04-10T05:01:13.341Z,33.75
2018-04-10T05:03:41.503Z,30.30
2018-04-10T05:06:09.658Z,30.90
2018-04-10T05:08:37.818Z,29.48
2018-04-10T05:11:05.957Z,31.12
2018-04-10T05:13:34.115Z,30.88
2018-04-10T05:16:02.255Z,30.40
2018-04-10T05:18:30.424Z,32.25
2018-04-10T05:20:58.562Z,32.70
2018-04-10T05:23:26.724Z,29.92
2018-04-10T05:25:54.868Z,30.70
2018-04-10T05:28:23.036Z,29.75
2018-04-10T05:30:51.177Z,28.12
2018-04-10T05:33:19.340Z,31.52
2018-04-10T05:35:48.244Z,28.80
2018-04-10T05:38:16.404Z,29.98
2018-04-10T05:40:44.553Z,29.87
2018-04-10T05:43:12.724Z,28.38
2018-04-10T05:45:40.860Z,29.40
2018-04-10T05:48:09.027Z,28.65
2018-04-10T05:50:37.167Z,28.08
2018-04-10T05:53:05.367Z,29.40
2018-04-10T05:55:33.514Z,30.17
2018-04-10T05:58:01.680Z,27.98
2018-04-10T06:00:29.840Z,29.17
2018-04-10T06:02:58.005Z,29.05
2018-04-10T06:05:26.143Z,29.50
2018-04-10T06:07:54.307Z,27.50
2018-04-10T06:10:22.467Z,29.25
2018-04-10T06:12:50.638Z,27.25
2018-04-10T06:15:18.776Z,27.90
2018-04-10T06:17:46.944Z,29.40
2018-04-10T06:20:15.098Z,29.08
2018-04-10T06:22:43.259Z,29.02
2018-04-10T06:25:11.400Z,27.77
2018-04-10T06:27:39.568Z,27.02
2018-04-10T06:30:08.477Z,28.70
2018-04-10T06:32:36.655Z,29.15
2018-04-10T06:35:04.794Z,28.95
2018-04-10T06:37:33.733Z,29.48
2018-04-10T06:40:01.876Z,28.65
2018-04-10T06:42:30.304Z,29.73
2018-04-10T06:44:58.445Z,28.83
2018-04-10T06:47:26.583Z,28.92
2018-04-10T06:49:55.507Z,27.92
2018-04-10T06:52:23.950Z,26.33
2018-04-10T06:54:52.151Z,28.17
2018-04-10T06:57:20.318Z,27.17
2018-04-10T06:59:48.578Z,25.65
2018-04-10T07:02:16.728Z,25.58
2018-04-10T07:04:44.896Z,25.30
2018-04-10T07:07:13.043Z,24.42
2018-04-10T07:09:41.400Z,24.10
2018-04-10T07:12:09.556Z,24.17
2018-04-10T07:14:37.751Z,23.60
2018-04-10T07:17:05.955Z,24.63
2018-04-10T07:19:34.176Z,22.67
2018-04-10T07:22:02.366Z,25.00
2018-04-10T07:24:30.526Z,24.42
2018-04-10T07:26:59.095Z,24.73
2018-04-10T07:29:27.416Z,23.95
2018-04-10T07:31:55.731Z,26.95
2018-04-10T07:34:24.024Z,29.65
2018-04-10T07:36:52.219Z,29.93
2018-04-10T07:39:20.501Z,31.37
2018-04-10T07:41:48.659Z,31.17
2018-04-10T07:44:16.904Z,33.27
2018-04-10T07:46:45.417Z,32.57
2018-04-10T07:49:13.696Z,36.97
2018-04-10T07:51:42.118Z,35.83
2018-04-10T07:54:10.566Z,37.50
2018-04-10T07:56:38.910Z,35.80
2018-04-10T07:59:07.107Z,36.40
2018-04-10T08:01:35.617Z,37.30
2018-04-10T08:04:04.693Z,35.73
2018-04-10T08:06:33.581Z,38.50
2018-04-10T08:09:01.861Z,36.23
2018-04-10T08:11:30.415Z,37.30
2018-04-10T08:13:59.094Z,35.70
2018-04-10T08:16:28.490Z,35.50
2018-04-10T08:18:56.955Z,36.30
2018-04-10T08:21:25.292Z,33.70
2018-04-10T08:23:54.016Z,31.47
2018-04-10T08:26:22.285Z,31.17
2018-04-10T08:28:50.485Z,29.53
2018-04-10T08:31:18.635Z,26.20
2018-04-10T08:33:46.857Z,26.47
2018-04-10T08:36:14.993Z,25.53
2018-04-10T08:38:43.181Z,25.67
2018-04-10T08:41:11.327Z,25.23
2018-04-10T08:43:39.520Z,28.47
2018-04-10T08:46:08.549Z,26.50
2018-04-10T08:48:36.817Z,22.37
2018-04-10T08:51:04.968Z,24.87
2018-04-10T08:53:33.204Z,23.30
2018-04-10T08:56:01.532Z,24.40
2018-04-10T08:58:29.695Z,25.87
2018-04-10T09:00:58.630Z,26.73
2018-04-10T09:03:26.779Z,25.97
2018-04-10T09:05:54.991Z,26.20
2018-04-10T09:08:23.143Z,27.10
2018-04-10T09:10:51.359Z,26.98
2018-04-10T09:13:19.499Z,26.92
2018-04-10T09:15:47.818Z,26.92
2018-04-10T09:18:15.995Z,23.35
2018-04-10T09:20:44.164Z,25.17
2018-04-10T09:23:12.307Z,27.67
2018-04-10T09:25:40.491Z,27.55
2018-04-10T09:28:08.631Z,26.95
2018-04-10T09:30:36.822Z,25.55
2018-04-10T09:33:04.959Z,26.08
2018-04-10T09:35:33.128Z,26.25
2018-04-10T09:38:01.263Z,25.92
2018-04-10T09:40:29.430Z,25.02
2018-04-10T09:42:57.572Z,26.80
2018-04-10T09:45:25.736Z,23.60
2018-04-10T09:47:53.871Z,25.83
2018-04-10T09:50:22.045Z,25.33
2018-04-10T09:52:50.183Z,26.73
2018-04-10T09:55:18.352Z,24.58
2018-04-10T09:57:46.498Z,27.35
2018-04-10T10:00:14.709Z,27.40
2018-04-10T10:02:42.858Z,26.80
2018-04-10T10:05:11.019Z,24.80
2018-04-10T10:07:39.169Z,25.30
2018-04-10T10:10:07.355Z,25.23
2018-04-10T10:12:35.501Z,21.98
2018-04-10T10:15:03.686Z,25.95
2018-04-10T10:17:31.828Z,26.80
2018-04-10T10:19:59.994Z,27.42
2018-04-10T10:22:28.127Z,26.67
2018-04-10T10:24:56.343Z,26.98
2018-04-10T10:27:24.479Z,28.70
2018-04-10T10:29:52.648Z,25.80
2018-04-10T10:32:20.779Z,25.90
2018-04-10T10:34:48.951Z,26.55
2018-04-10T10:37:17.092Z,25.23
2018-04-10T10:39:45.256Z,26.92
2018-04-10T10:42:13.392Z,21.98
2018-04-10T10:44:41.556Z,24.17
2018-04-10T10:47:09.725Z,23.17
2018-04-10T10:49:37.895Z,22.35
2018-04-10T10:52:06.067Z,22.10
2018-04-10T10:54:34.204Z,22.52
2018-04-10T10:57:02.373Z,19.90
2018-04-10T10:59:30.520Z,24.80
2018-04-10T11:01:58.688Z,41.00
2018-04-10T11:04:26.827Z,21.85
2018-04-10T11:06:55.000Z,22.05
2018-04-10T11:09:23.142Z,22.00
2018-04-10T11:11:51.299Z,20.80
2018-04-10T11:14:19.448Z,21.77
2018-04-10T11:16:48.387Z,18.15
2018-04-10T11:19:16.524Z,29.67
2018-04-10T11:21:44.701Z,20.40
2018-04-10T11:24:12.842Z,33.40
2018-04-10T11:26:41.005Z,64.47
2018-04-10T11:29:09.147Z,30.17
2018-04-10T11:31:37.307Z,30.00
2018-04-10T11:34:05.464Z,28.42
2018-04-10T11:36:33.652Z,22.25
2018-04-10T11:39:01.791Z,34.85
2018-04-10T11:41:29.955Z,24.17
2018-04-10T11:43:58.092Z,27.25
2018-04-10T11:46:26.268Z,23.00
2018-04-10T11:48:54.428Z,21.92
2018-04-10T11:51:22.637Z,22.10
2018-04-10T11:53:50.779Z,19.83
2018-04-10T11:56:19.021Z,23.10
2018-04-10T11:58:47.170Z,20.20
2018-04-10T12:01:16.100Z,20.33
2018-04-10T12:03:44.258Z,19.35
2018-04-10T12:06:12.420Z,22.83
2018-04-10T12:08:40.563Z,25.35
2018-04-10T12:11:08.732Z,21.23
2018-04-10T12:13:36.880Z,20.37
2018-04-10T12:16:05.094Z,21.85
2018-04-10T12:18:33.248Z,22.42
2018-04-10T12:21:01.412Z,19.35
2018-04-10T12:23:29.547Z,21.27
2018-04-10T12:25:57.708Z,19.27
2018-04-10T12:28:25.839Z,23.08
2018-04-10T12:30:54.010Z,20.95
2018-04-10T12:33:22.150Z,22.48
2018-04-10T12:35:50.308Z,21.73
2018-04-10T12:38:18.443Z,21.98
2018-04-10T12:40:46.612Z,18.62
2018-04-10T12:43:14.756Z,22.20
2018-04-10T12:45:42.915Z,21.80
2018-04-10T12:48:11.056Z,20.92
2018-04-10T12:50:40.001Z,21.12
2018-04-10T12:53:08.135Z,16.37
2018-04-10T12:55:36.281Z,22.37
2018-04-10T12:58:04.442Z,21.35
2018-04-10T13:00:32.583Z,24.48
2018-04-10T13:03:00.743Z,23.25
2018-04-10T13:05:28.887Z,21.45
2018-04-10T13:07:57.052Z,20.15
2018-04-10T13:10:25.183Z,20.45
2018-04-10T13:12:53.339Z,24.70
2018-04-10T13:15:21.477Z,21.77
2018-04-10T13:17:49.643Z,23.60
2018-04-10T13:20:17.782Z,22.35
2018-04-10T13:22:45.943Z,21.40
2018-04-10T13:25:14.114Z,22.13
2018-04-10T13:27:42.314Z,19.45
2018-04-10T13:30:10.455Z,21.40
2018-04-10T13:32:38.708Z,21.37
2018-04-10T13:35:06.923Z,22.92
2018-04-10T13:37:35.107Z,21.42
2018-04-10T13:40:03.236Z,21.30
2018-04-10T13:42:31.400Z,20.17
2018-04-10T13:44:59.536Z,21.20
2018-04-10T13:47:27.699Z,22.37
2018-04-10T13:49:55.830Z,22.87
2018-04-10T13:52:23.991Z,21.87
2018-04-10T13:54:52.170Z,21.25
2018-04-10T13:57:21.167Z,19.62
2018-04-10T13:59:49.349Z,21.10
2018-04-10T14:02:17.585Z,20.83
2018-04-10T14:04:45.731Z,23.80
2018-04-10T14:07:13.993Z,22.27
2018-04-10T14:09:42.180Z,20.65
2018-04-10T14:12:10.344Z,21.42
2018-04-10T14:14:42.376Z,40.85
2018-04-10T14:17:10.552Z,19.35
2018-04-10T14:19:38.687Z,21.50
2018-04-10T14:22:06.841Z,19.90
2018-04-10T14:24:34.980Z,16.83
2018-04-10T14:27:03.147Z,21.33
2018-04-10T14:29:31.281Z,22.80
2018-04-10T14:32:00.315Z,18.70
2018-04-10T14:34:28.461Z,20.08
2018-04-10T14:36:56.816Z,21.48
2018-04-10T14:39:25.058Z,20.98
2018-04-10T14:41:53.452Z,20.73
2018-04-10T14:44:21.720Z,20.90
2018-04-10T14:46:49.909Z,21.60
2018-04-10T14:49:18.082Z,19.48
2018-04-10T14:51:46.252Z,18.60
2018-04-10T14:54:14.431Z,18.42
2018-04-10T14:56:42.560Z,22.25
2018-04-10T14:59:10.888Z,18.65
2018-04-10T15:01:39.198Z,20.15
2018-04-10T15:04:07.354Z,19.60
2018-04-10T15:06:35.502Z,18.02
2018-04-10T15:09:03.660Z,17.85
2018-04-10T15:11:31.801Z,19.27
2018-04-10T15:13:59.957Z,16.77
2018-04-10T15:16:28.182Z,19.33
2018-04-10T15:18:56.344Z,15.75
2018-04-10T15:21:24.528Z,18.62
2018-04-10T15:23:52.731Z,17.58
2018-04-10T15:26:21.639Z,19.00
2018-04-10T15:28:49.811Z,17.37
2018-04-10T15:31:17.942Z,19.58
2018-04-10T15:33:46.109Z,18.80
2018-04-10T15:36:14.305Z,16.75
2018-04-10T15:38:42.538Z,17.30
2018-04-10T15:41:10.672Z,17.62
2018-04-10T15:43:38.827Z,16.77
2018-04-10T15:46:07.719Z,17.45
2018-04-10T15:48:35.880Z,17.73
2018-04-10T15:51:04.113Z,16.65
2018-04-10T15:53:32.286Z,17.33
2018-04-10T15:56:00.455Z,17.50
2018-04-10T15:58:28.607Z,18.25
2018-04-10T16:00:56.739Z,17.67
2018-04-10T16:03:24.896Z,16.98
2018-04-10T16:05:53.030Z,16.50
2018-04-10T16:08:21.311Z,17.85
2018-04-10T16:10:49.438Z,18.12
2018-04-10T16:13:17.617Z,15.48
2018-04-10T16:15:45.756Z,17.33
2018-04-10T16:18:13.920Z,18.20
2018-04-10T16:20:42.055Z,17.52
2018-04-10T16:23:10.971Z,17.17
2018-04-10T16:25:39.125Z,16.05
2018-04-10T16:28:07.434Z,19.00
2018-04-10T16:30:36.091Z,15.10
2018-04-10T16:33:04.253Z,16.35
2018-04-10T16:35:33.166Z,14.65
2018-04-10T16:38:01.331Z,19.20
2018-04-10T16:40:29.467Z,16.48
2018-04-10T16:42:57.639Z,17.80
2018-04-10T16:45:25.771Z,18.40
2018-04-10T16:47:53.948Z,19.10
2018-04-10T16:50:22.084Z,19.02
2018-04-10T16:52:50.258Z,18.40
2018-04-10T16:55:18.387Z,18.48
2018-04-10T16:57:46.518Z,17.70
2018-04-10T17:00:14.675Z,15.90
2018-04-10T17:02:42.836Z,16.30
2018-04-10T17:05:10.992Z,18.02
2018-04-10T17:07:39.120Z,17.00
2018-04-10T17:10:07.291Z,14.27
2018-04-10T17:12:35.476Z,17.80
2018-04-10T17:15:03.621Z,17.67
2018-04-10T17:17:31.767Z,19.05
2018-04-10T17:19:59.929Z,15.05
2018-04-10T17:22:28.061Z,15.82
2018-04-10T17:24:56.532Z,16.50
2018-04-10T17:27:24.664Z,18.70
2018-04-10T17:29:52.819Z,13.35
2018-04-10T17:32:20.967Z,13.65
2018-04-10T17:34:49.123Z,15.48
2018-04-10T17:37:17.267Z,16.02
2018-04-10T17:39:45.419Z,15.50
2018-04-10T17:42:13.553Z,14.98
2018-04-10T17:44:41.907Z,16.67
2018-04-10T17:47:10.097Z,14.25
2018-04-10T17:49:38.265Z,16.10
2018-04-10T17:52:06.490Z,16.12
2018-04-10T17:54:34.678Z,15.73
2018-04-10T17:57:02.853Z,14.57
2018-04-10T17:59:31.069Z,15.43
2018-04-10T18:01:59.292Z,15.05
2018-04-10T18:04:27.542Z,13.27
2018-04-10T18:06:55.725Z,13.90
2018-04-10T18:09:23.952Z,14.10
2018-04-10T18:11:52.171Z,14.75
2018-04-10T18:14:20.343Z,11.90
2018-04-10T18:16:48.475Z,12.70
2018-04-10T18:19:16.681Z,12.80
2018-04-10T18:21:44.980Z,11.73
2018-04-10T18:24:13.151Z,12.88
2018-04-10T18:26:41.283Z,12.23
2018-04-10T18:29:09.491Z,14.55
2018-04-10T18:31:37.619Z,14.63
2018-04-10T18:34:05.966Z,13.75
2018-04-10T18:36:34.129Z,14.23
2018-04-10T18:39:02.321Z,12.00
2018-04-10T18:41:31.320Z,13.00
2018-04-10T18:43:59.649Z,13.45
2018-04-10T18:46:27.791Z,12.52
2018-04-10T18:48:56.005Z,11.90
2018-04-10T18:51:24.219Z,11.57
2018-04-10T18:53:53.229Z,10.45
2018-04-10T18:56:21.448Z,12.55
2018-04-10T18:58:49.735Z,14.32
2018-04-10T19:01:17.917Z,11.88
2018-04-10T19:03:46.915Z,10.65
2018-04-10T19:06:15.085Z,13.15
2018-04-10T19:08:43.996Z,12.02
2018-04-10T19:11:12.168Z,12.10
2018-04-10T19:13:40.303Z,12.90
2018-04-10T19:16:08.528Z,10.05
2018-04-10T19:18:36.692Z,11.80
2018-04-10T19:21:05.034Z,10.82
2018-04-10T19:23:33.224Z,11.38
2018-04-10T19:26:02.187Z,11.65
2018-04-10T19:28:30.484Z,10.93
2018-04-10T19:30:58.698Z,11.05
2018-04-10T19:33:26.902Z,12.13
2018-04-10T19:35:55.040Z,9.85
2018-04-10T19:38:23.203Z,11.20
2018-04-10T19:40:51.403Z,9.85
2018-04-10T19:43:19.567Z,8.95
2018-04-10T19:45:47.771Z,9.57
2018-04-10T19:48:16.083Z,9.55
2018-04-10T19:50:45.046Z,9.88
2018-04-10T19:53:13.398Z,10.10
2018-04-10T19:55:41.596Z,9.88
2018-04-10T19:58:09.758Z,10.88
2018-04-10T20:00:38.018Z,10.32
2018-04-10T20:03:06.176Z,10.93
2018-04-10T20:05:34.340Z,8.05
2018-04-10T20:08:02.476Z,10.30
2018-04-10T20:10:30.624Z,8.45
2018-04-10T20:12:58.758Z,9.25
2018-04-10T20:15:26.912Z,9.00
2018-04-10T20:17:55.831Z,10.02
2018-04-10T20:20:23.959Z,10.73
2018-04-10T20:22:52.119Z,9.68
2018-04-10T20:25:20.273Z,8.25
2018-04-10T20:27:48.455Z,7.57
2018-04-10T20:30:16.608Z,7.62
2018-04-10T20:32:44.761Z,8.98
2018-04-10T20:35:12.916Z,7.75
2018-04-10T20:37:41.077Z,7.43
2018-04-10T20:40:09.235Z,6.97
2018-04-10T20:42:37.385Z,10.88
2018-04-10T20:45:05.564Z,8.57
2018-04-10T20:47:33.723Z,7.70
2018-04-10T20:50:01.857Z,9.30
2018-04-10T20:52:30.782Z,8.15
2018-04-10T20:54:58.912Z,9.05
2018-04-10T20:57:27.072Z,10.63
2018-04-10T20:59:55.227Z,8.70
2018-04-10T21:02:23.435Z,8.48
2018-04-10T21:04:51.567Z,9.20
2018-04-10T21:07:19.689Z,7.68
2018-04-10T21:09:47.894Z,8.25
2018-04-10T21:12:16.024Z,9.52
2018-04-10T21:14:44.220Z,8.68
2018-04-10T21:17:12.351Z,7.22
2018-04-10T21:19:40.543Z,8.32
2018-04-10T21:22:08.671Z,9.10
2018-04-10T21:24:36.823Z,8.85
2018-04-10T21:27:04.958Z,8.32
2018-04-10T21:29:33.201Z,9.05
2018-04-10T21:32:01.327Z,7.85
2018-04-10T21:34:29.497Z,7.85
2018-04-10T21:36:58.392Z,7.62
2018-04-10T21:39:26.559Z,7.57
2018-04-10T21:41:54.699Z,7.25
2018-04-10T21:44:22.883Z,7.62
2018-04-10T21:46:51.011Z,8.73
2018-04-10T21:49:19.171Z,7.05
2018-04-10T21:51:47.335Z,7.57
2018-04-10T21:54:15.492Z,7.45
2018-04-10T21:56:43.631Z,7.00
2018-04-10T21:59:11.796Z,8.35
2018-04-10T22:01:39.932Z,7.62
2018-04-10T22:04:08.068Z,9.20
2018-04-10T22:06:36.219Z,7.57
2018-04-10T22:09:04.359Z,9.20
2018-04-10T22:11:32.512Z,7.37
2018-04-10T22:14:00.671Z,8.43
2018-04-10T22:16:28.827Z,7.40
2018-04-10T22:18:56.952Z,7.97
2018-04-10T22:21:25.107Z,9.18
2018-04-10T22:23:53.239Z,7.85
2018-04-10T22:26:21.390Z,7.00
2018-04-10T22:28:49.512Z,7.20
2018-04-10T22:31:18.426Z,7.10
2018-04-10T22:33:46.559Z,8.13
2018-04-10T22:36:14.712Z,8.00
2018-04-10T22:38:42.833Z,6.50
2018-04-10T22:41:10.983Z,8.15
2018-04-10T22:43:39.116Z,7.95
2018-04-10T22:46:07.265Z,8.23
2018-04-10T22:48:35.424Z,9.07
2018-04-10T22:51:03.584Z,8.32
2018-04-10T22:53:31.720Z,7.43
2018-04-10T22:56:00.638Z,8.35
2018-04-10T22:58:28.772Z,8.18
2018-04-10T23:00:56.931Z,8.57
2018-04-10T23:03:25.059Z,7.95
2018-04-10T23:05:53.220Z,8.30
2018-04-10T23:08:21.357Z,9.18
2018-04-10T23:10:49.532Z,7.95
2018-04-10T23:13:17.671Z,9.57
2018-04-10T23:15:45.804Z,9.07
2018-04-10T23:18:13.959Z,8.00
2018-04-10T23:20:42.091Z,6.75
2018-04-10T23:23:10.251Z,7.18
2018-04-10T23:25:38.378Z,7.68
2018-04-10T23:28:06.524Z,7.90
2018-04-10T23:30:34.647Z,6.65
2018-04-10T23:33:02.804Z,7.82
2018-04-10T23:35:30.937Z,7.03
2018-04-10T23:37:59.093Z,7.70
2018-04-10T23:40:27.224Z,6.85
2018-04-10T23:42:55.387Z,6.82
2018-04-10T23:45:23.508Z,6.40
2018-04-10T23:47:51.660Z,6.78
2018-04-10T23:50:19.799Z,7.40
2018-04-10T23:52:47.943Z,7.20
2018-04-10T23:55:16.097Z,7.72
2018-04-10T23:57:44.254Z,7.35
